createdAt,value
2023-05-22T18:50:06.169Z,1006.96
2023-05-22T18:51:07.201Z,1006.96
2023-05-22T18:51:45.760Z,1006.97
2023-05-22T18:53:29.929Z,1006.99
2023-05-22T18:54:31.016Z,1006.95
2023-05-22T18:55:31.092Z,1007.02
2023-05-22T18:56:31.158Z,1007.09
2023-05-22T18:57:31.232Z,1007.13
2023-05-22T18:58:31.319Z,1007.18
2023-05-22T18:59:31.391Z,1007.17
2023-05-22T19:00:31.496Z,1007.19
2023-05-22T19:01:31.685Z,1007.28
2023-05-22T19:02:31.663Z,1007.31
2023-05-22T19:03:31.747Z,1007.43
2023-05-22T19:04:31.874Z,1007.43
2023-05-22T19:05:31.895Z,1007.50
2023-05-22T19:06:31.974Z,1007.56
2023-05-22T19:07:32.051Z,1007.58
2023-05-22T19:08:32.130Z,1007.61
2023-05-22T19:09:32.214Z,1007.65
2023-05-22T19:10:32.288Z,1007.68
2023-05-22T19:11:32.358Z,1007.74
2023-05-22T19:12:32.437Z,1007.72
2023-05-22T19:13:32.677Z,1007.72
2023-05-22T19:16:24.407Z,1007.67
2023-05-22T19:17:25.457Z,1007.68
2023-05-22T19:18:25.500Z,1007.67
2023-05-22T19:19:25.637Z,1007.69
2023-05-22T19:20:25.703Z,1007.72
2023-05-22T19:21:25.754Z,1007.77
2023-05-22T19:22:25.857Z,1007.81
2023-05-22T19:23:25.952Z,1007.80
2023-05-22T19:24:25.998Z,1007.82
2023-05-22T19:25:26.056Z,1007.83
2023-05-22T19:26:26.156Z,1007.85
2023-05-22T19:27:26.208Z,1007.86
2023-05-22T19:28:26.311Z,1007.90
2023-05-22T19:29:26.376Z,1007.95
2023-05-22T19:30:26.497Z,1007.99
2023-05-22T19:31:26.587Z,1008.02
2023-05-22T19:32:26.650Z,1008.00
2023-05-22T19:33:26.714Z,1008.03
2023-05-22T19:34:26.768Z,1008.10
2023-05-22T19:35:26.868Z,1008.13
2023-05-22T19:36:26.967Z,1008.18
2023-05-22T19:37:27.030Z,1008.28
2023-05-22T19:38:27.104Z,1008.33
2023-05-22T19:39:27.173Z,1008.38
2023-05-22T19:40:27.238Z,1008.44
2023-05-22T19:41:27.331Z,1008.45
2023-05-22T19:42:27.398Z,1008.44
2023-05-22T19:43:27.466Z,1008.45
2023-05-22T19:44:27.519Z,1008.51
2023-05-22T19:45:27.577Z,1008.52
2023-05-22T19:46:27.698Z,1008.55
2023-05-22T19:47:27.745Z,1008.62
2023-05-22T19:48:27.787Z,1008.59
2023-05-22T19:49:27.892Z,1008.64
2023-05-22T19:50:27.974Z,1008.62
2023-05-22T19:51:28.063Z,1008.61
2023-05-22T19:52:28.124Z,1008.68
2023-05-22T19:53:28.220Z,1008.63
2023-05-22T19:54:28.280Z,1008.65
2023-05-22T19:55:28.391Z,1008.62
2023-05-22T19:56:28.455Z,1008.63
2023-05-22T19:57:28.518Z,1008.62
2023-05-22T19:58:28.573Z,1008.60
2023-05-22T19:59:28.675Z,1008.59
2023-05-22T20:00:28.747Z,1008.58
2023-05-22T20:01:28.870Z,1008.57
2023-05-22T20:02:28.935Z,1008.58
2023-05-22T20:03:29.078Z,1008.58
2023-05-22T20:04:29.019Z,1008.52
2023-05-22T20:05:29.094Z,1008.59
2023-05-22T20:06:29.157Z,1008.54
2023-05-22T20:07:29.265Z,1008.54
2023-05-22T20:08:29.329Z,1008.53
2023-05-22T20:09:29.432Z,1008.52
2023-05-22T20:10:30.431Z,1008.52
2023-05-22T20:11:29.561Z,1008.49
2023-05-22T20:12:29.625Z,1008.55
2023-05-22T20:13:29.692Z,1008.57
2023-05-22T20:14:29.798Z,1008.59
2023-05-22T20:15:29.873Z,1008.59
2023-05-22T20:16:30.011Z,1008.59
2023-05-22T20:17:30.073Z,1008.60
2023-05-22T20:18:30.082Z,1008.59
2023-05-22T20:19:31.241Z,1008.61
2023-05-22T20:20:30.224Z,1008.59
2023-05-22T20:21:30.320Z,1008.57
2023-05-22T20:22:30.384Z,1008.56
2023-05-22T20:23:30.488Z,1008.57
2023-05-22T20:24:30.555Z,1008.56
2023-05-22T20:25:30.656Z,1008.52
2023-05-22T20:26:30.714Z,1008.54
2023-05-22T20:27:30.821Z,1008.53
2023-05-22T20:28:30.882Z,1008.50
2023-05-22T20:29:30.978Z,1008.48
2023-05-22T20:30:31.057Z,1008.49
2023-05-22T20:31:31.160Z,1008.48
2023-05-22T20:32:31.234Z,1008.48
2023-05-22T20:33:31.279Z,1008.48
2023-05-22T20:34:31.336Z,1008.45
2023-05-22T20:35:31.439Z,1008.48
2023-05-22T20:36:31.525Z,1008.46
2023-05-22T20:37:31.620Z,1008.45
2023-05-22T20:38:31.683Z,1008.44
2023-05-22T20:39:31.784Z,1008.44
2023-05-22T20:40:31.844Z,1008.49
2023-05-22T20:41:31.938Z,1008.46
2023-05-22T20:42:32.006Z,1008.48
2023-05-22T20:43:32.118Z,1008.51
2023-05-22T20:44:32.176Z,1008.51
2023-05-22T20:45:32.299Z,1008.52
2023-05-22T20:46:32.405Z,1008.48
2023-05-22T20:47:32.432Z,1008.51
2023-05-22T20:48:32.470Z,1008.53
2023-05-22T20:49:32.570Z,1008.51
2023-05-22T20:50:32.642Z,1008.53
2023-05-22T20:51:32.960Z,1008.55
2023-05-22T20:52:32.910Z,1008.53
2023-05-22T20:53:32.879Z,1008.54
2023-05-22T20:54:32.942Z,1008.51
2023-05-22T20:55:33.037Z,1008.53
2023-05-22T20:56:33.116Z,1008.47
2023-05-22T20:57:33.181Z,1008.52
2023-05-22T20:58:33.273Z,1008.49
2023-05-22T20:59:33.320Z,1008.50
2023-05-22T21:00:33.393Z,1008.46
2023-05-22T21:01:33.486Z,1008.42
2023-05-22T21:02:33.575Z,1008.45
2023-05-22T21:03:33.651Z,1008.46
2023-05-22T21:04:33.776Z,1008.44
2023-05-22T21:05:33.775Z,1008.48
2023-05-22T21:06:33.843Z,1008.42
2023-05-22T21:07:33.941Z,1008.47
2023-05-22T21:08:34.042Z,1008.45
2023-05-22T21:09:34.131Z,1008.42
2023-05-22T21:10:34.204Z,1008.40
2023-05-22T21:11:34.259Z,1008.41
2023-05-22T21:12:34.320Z,1008.35
2023-05-22T21:13:34.436Z,1008.35
2023-05-22T21:14:34.490Z,1008.35
2023-05-22T21:15:34.564Z,1008.34
2023-05-22T21:16:35.797Z,1008.32
2023-05-22T21:17:34.789Z,1008.35
2023-05-22T21:18:34.805Z,1008.37
2023-05-22T21:19:34.897Z,1008.35
2023-05-22T21:20:34.950Z,1008.34
2023-05-22T21:21:35.011Z,1008.35
2023-05-22T21:22:35.141Z,1008.32
2023-05-22T21:23:35.156Z,1008.33
2023-05-22T21:24:35.223Z,1008.32
2023-05-22T21:25:35.311Z,1008.30
2023-05-22T21:26:35.366Z,1008.36
2023-05-22T21:27:35.490Z,1008.35
2023-05-22T21:28:35.552Z,1008.37
2023-05-22T21:29:35.676Z,1008.36
2023-05-22T21:30:35.732Z,1008.36
2023-05-22T21:31:36.029Z,1008.36
2023-05-22T21:32:35.887Z,1008.35
2023-05-22T21:33:36.002Z,1008.35
2023-05-22T21:34:36.083Z,1008.35
2023-05-22T21:35:36.121Z,1008.35
2023-05-22T21:36:36.213Z,1008.35
2023-05-22T21:37:36.334Z,1008.32
2023-05-22T21:38:36.415Z,1008.35
2023-05-22T21:39:36.469Z,1008.34
2023-05-22T21:40:36.551Z,1008.32
2023-05-22T21:41:36.636Z,1008.35
2023-05-22T21:42:45.990Z,1008.35
2023-05-22T21:43:36.805Z,1008.32
2023-05-22T21:44:36.870Z,1008.33
2023-05-22T21:45:36.967Z,1008.33
2023-05-22T21:46:37.116Z,1008.32
2023-05-22T21:47:37.232Z,1008.31
2023-05-22T21:48:37.248Z,1008.30
2023-05-22T21:49:39.452Z,1008.30
2023-05-22T21:50:37.443Z,1008.31
2023-05-22T21:51:37.527Z,1008.30
2023-05-22T21:52:37.595Z,1008.24
2023-05-22T21:53:37.688Z,1008.29
2023-05-22T21:54:37.777Z,1008.28
2023-05-22T21:55:37.881Z,1008.26
2023-05-22T21:56:37.945Z,1008.24
2023-05-22T21:57:38.048Z,1008.24
2023-05-22T21:58:38.137Z,1008.27
2023-05-22T21:59:38.227Z,1008.22
2023-05-22T22:00:38.491Z,1008.22
2023-05-22T22:01:38.408Z,1008.23
2023-05-22T22:02:38.560Z,1008.22
2023-05-22T22:03:38.771Z,1008.22
2023-05-22T22:04:38.628Z,1008.24
2023-05-22T22:05:38.726Z,1008.24
2023-05-22T22:06:38.801Z,1008.26
2023-05-22T22:07:38.865Z,1008.27
2023-05-22T22:08:38.926Z,1008.27
2023-05-22T22:09:39.022Z,1008.25
2023-05-22T22:10:39.228Z,1008.28
2023-05-22T22:11:39.185Z,1008.26
2023-05-22T22:12:39.246Z,1008.24
2023-05-22T22:13:39.347Z,1008.22
2023-05-22T22:14:39.399Z,1008.21
2023-05-22T22:15:39.514Z,1008.23
2023-05-22T22:16:39.612Z,1008.24
2023-05-22T22:17:39.655Z,1008.20
2023-05-22T22:18:39.709Z,1008.19
2023-05-22T22:19:39.809Z,1008.17
2023-05-22T22:20:44.978Z,1008.17
2023-05-22T22:21:39.971Z,1008.13
2023-05-22T22:22:40.039Z,1008.13
2023-05-22T22:23:40.134Z,1008.09
2023-05-22T22:24:40.196Z,1008.11
2023-05-22T22:25:40.304Z,1008.04
2023-05-22T22:26:40.364Z,1008.07
2023-05-22T22:27:40.429Z,1008.06
2023-05-22T22:28:40.527Z,1008.06
2023-05-22T22:29:40.591Z,1008.08
2023-05-22T22:30:40.952Z,1008.04
2023-05-22T22:31:40.779Z,1008.03
2023-05-22T22:32:40.846Z,1008.01
2023-05-22T22:33:40.913Z,1008.03
2023-05-22T22:34:40.981Z,1007.97
2023-05-22T22:35:41.280Z,1007.95
2023-05-22T22:36:41.168Z,1007.92
2023-05-22T22:37:41.268Z,1007.95
2023-05-22T22:38:41.335Z,1007.88
2023-05-22T22:39:41.404Z,1007.93
2023-05-22T22:40:41.737Z,1007.89
2023-05-22T22:41:41.559Z,1007.86
2023-05-22T22:42:41.620Z,1007.85
2023-05-22T22:43:41.743Z,1007.83
2023-05-22T22:44:41.803Z,1007.80
2023-05-22T22:45:42.055Z,1007.85
2023-05-22T22:46:41.994Z,1007.85
2023-05-22T22:47:42.091Z,1007.85
2023-05-22T22:48:42.107Z,1007.81
2023-05-22T22:49:42.215Z,1007.80
2023-05-22T22:50:42.346Z,1007.79
2023-05-22T22:51:42.383Z,1007.78
2023-05-22T22:52:42.453Z,1007.78
2023-05-22T22:53:42.520Z,1007.77
2023-05-22T22:54:44.630Z,1007.76
2023-05-22T22:55:42.850Z,1007.73
2023-05-22T22:56:42.748Z,1007.72
2023-05-22T22:57:42.853Z,1007.71
2023-05-22T22:58:42.922Z,1007.74
2023-05-22T22:59:43.039Z,1007.71
2023-05-22T23:00:43.092Z,1007.70
2023-05-22T23:01:43.203Z,1007.69
2023-05-22T23:02:43.308Z,1007.69
2023-05-22T23:03:43.317Z,1007.68
2023-05-22T23:04:43.472Z,1007.67
2023-05-22T23:05:43.723Z,1007.67
2023-05-22T23:06:43.566Z,1007.65
2023-05-22T23:07:43.670Z,1007.62
2023-05-22T23:08:43.735Z,1007.58
2023-05-22T23:09:43.800Z,1007.60
2023-05-22T23:10:43.859Z,1007.60
2023-05-22T23:11:43.969Z,1007.57
2023-05-22T23:12:44.037Z,1007.54
2023-05-22T23:13:44.208Z,1007.56
2023-05-22T23:14:44.223Z,1007.53
2023-05-22T23:15:44.391Z,1007.50
2023-05-22T23:16:44.407Z,1007.53
2023-05-22T23:17:44.591Z,1007.53
2023-05-22T23:18:44.545Z,1007.54
2023-05-22T23:19:44.611Z,1007.56
2023-05-22T23:20:44.687Z,1007.52
2023-05-22T23:21:44.806Z,1007.49
2023-05-22T23:22:44.860Z,1007.46
2023-05-22T23:23:44.960Z,1007.47
2023-05-22T23:24:45.012Z,1007.45
2023-05-22T23:25:45.118Z,1007.48
2023-05-22T23:26:45.193Z,1007.46
2023-05-22T23:27:45.295Z,1007.44
2023-05-22T23:28:45.346Z,1007.43
2023-05-22T23:29:45.451Z,1007.45
2023-05-22T23:30:45.524Z,1007.48
2023-05-22T23:31:45.649Z,1007.49
2023-05-22T23:32:45.765Z,1007.47
2023-05-22T23:33:45.767Z,1007.51
2023-05-22T23:34:45.854Z,1007.49
2023-05-22T23:35:45.923Z,1007.47
2023-05-22T23:36:45.984Z,1007.47
2023-05-22T23:37:46.078Z,1007.47
2023-05-22T23:38:46.134Z,1007.48
2023-05-22T23:39:46.243Z,1007.47
2023-05-22T23:40:46.309Z,1007.46
2023-05-22T23:41:46.409Z,1007.46
2023-05-22T23:42:46.513Z,1007.42
2023-05-22T23:43:46.605Z,1007.43
2023-05-22T23:44:46.679Z,1007.40
2023-05-22T23:45:46.778Z,1007.44
2023-05-22T23:46:46.953Z,1007.37
2023-05-22T23:47:46.965Z,1007.38
2023-05-22T23:48:47.015Z,1007.38
2023-05-22T23:49:47.080Z,1007.36
2023-05-22T23:50:47.163Z,1007.35
2023-05-22T23:51:47.252Z,1007.32
2023-05-22T23:52:47.334Z,1007.36
2023-05-22T23:53:47.392Z,1007.39
2023-05-22T23:54:47.491Z,1007.41
2023-05-22T23:55:47.557Z,1007.42
2023-05-22T23:56:47.661Z,1007.40
2023-05-22T23:57:47.722Z,1007.39
2023-05-22T23:58:47.824Z,1007.43
2023-05-22T23:59:47.898Z,1007.46
